sensor_id;sensor_type;location;lat;lon;timestamp;P1;durP1;ratioP1;P2;durP2;ratioP2
15889;SDS011;8043;49.388;12.128;2022-09-21T00:04:52;2.03;;;1.30;;
15889;SDS011;8043;49.388;12.128;2022-09-21T00:09:54;3.57;;;1.17;;
15889;SDS011;8043;49.388;12.128;2022-09-21T00:14:56;1.53;;;1.10;;
15889;SDS011;8043;49.388;12.128;2022-09-21T00:19:59;1.50;;;0.93;;
15889;SDS011;8043;49.388;12.128;2022-09-21T00:25:03;1.80;;;1.17;;
15889;SDS011;8043;49.388;12.128;2022-09-21T00:30:06;1.30;;;1.17;;
15889;SDS011;8043;49.388;12.128;2022-09-21T00:35:09;3.07;;;1.70;;
15889;SDS011;8043;49.388;12.128;2022-09-21T00:40:11;2.03;;;1.13;;
15889;SDS011;8043;49.388;12.128;2022-09-21T00:45:14;2.00;;;1.27;;
15889;SDS011;8043;49.388;12.128;2022-09-21T00:50:19;1.57;;;1.30;;
15889;SDS011;8043;49.388;12.128;2022-09-21T01:00:26;0.87;;;0.87;;
15889;SDS011;8043;49.388;12.128;2022-09-21T01:05:29;1.77;;;1.37;;
15889;SDS011;8043;49.388;12.128;2022-09-21T01:11:19;0.73;;;0.67;;
15889;SDS011;8043;49.388;12.128;2022-09-21T01:15:45;2.17;;;1.43;;
15889;SDS011;8043;49.388;12.128;2022-09-21T01:21:01;0.87;;;0.80;;
15889;SDS011;8043;49.388;12.128;2022-09-21T01:26:08;1.87;;;0.97;;
15889;SDS011;8043;49.388;12.128;2022-09-21T01:31:10;1.20;;;1.00;;
15889;SDS011;8043;49.388;12.128;2022-09-21T01:36:14;1.63;;;0.77;;
15889;SDS011;8043;49.388;12.128;2022-09-21T01:41:20;0.73;;;0.73;;
15889;SDS011;8043;49.388;12.128;2022-09-21T01:46:26;1.20;;;0.83;;
15889;SDS011;8043;49.388;12.128;2022-09-21T01:51:29;3.47;;;0.87;;
15889;SDS011;8043;49.388;12.128;2022-09-21T01:56:45;1.23;;;0.60;;
15889;SDS011;8043;49.388;12.128;2022-09-21T02:01:45;1.60;;;1.07;;
15889;SDS011;8043;49.388;12.128;2022-09-21T02:06:52;1.33;;;1.03;;
15889;SDS011;8043;49.388;12.128;2022-09-21T02:11:55;1.53;;;1.17;;
15889;SDS011;8043;49.388;12.128;2022-09-21T02:22:23;1.10;;;0.83;;
15889;SDS011;8043;49.388;12.128;2022-09-21T02:27:27;3.23;;;1.47;;
15889;SDS011;8043;49.388;12.128;2022-09-21T02:32:35;1.67;;;1.20;;
15889;SDS011;8043;49.388;12.128;2022-09-21T02:37:50;1.30;;;0.83;;
15889;SDS011;8043;49.388;12.128;2022-09-21T02:43:01;1.63;;;1.37;;
15889;SDS011;8043;49.388;12.128;2022-09-21T02:48:17;1.90;;;1.10;;
15889;SDS011;8043;49.388;12.128;2022-09-21T02:53:27;2.30;;;1.37;;
15889;SDS011;8043;49.388;12.128;2022-09-21T02:58:26;1.63;;;1.23;;
15889;SDS011;8043;49.388;12.128;2022-09-21T03:03:30;1.17;;;0.97;;
15889;SDS011;8043;49.388;12.128;2022-09-21T03:08:32;2.47;;;1.07;;
15889;SDS011;8043;49.388;12.128;2022-09-21T03:13:34;1.93;;;1.17;;
15889;SDS011;8043;49.388;12.128;2022-09-21T03:18:37;2.30;;;1.43;;
15889;SDS011;8043;49.388;12.128;2022-09-21T03:23:39;1.97;;;1.27;;
15889;SDS011;8043;49.388;12.128;2022-09-21T03:28:42;2.53;;;1.33;;
15889;SDS011;8043;49.388;12.128;2022-09-21T03:33:44;0.97;;;0.87;;
15889;SDS011;8043;49.388;12.128;2022-09-21T03:38:46;1.30;;;1.10;;
15889;SDS011;8043;49.388;12.128;2022-09-21T03:43:49;1.90;;;1.13;;
15889;SDS011;8043;49.388;12.128;2022-09-21T03:48:51;5.17;;;2.33;;
15889;SDS011;8043;49.388;12.128;2022-09-21T03:53:54;3.50;;;1.60;;
15889;SDS011;8043;49.388;12.128;2022-09-21T03:58:56;2.10;;;1.30;;
15889;SDS011;8043;49.388;12.128;2022-09-21T04:03:58;3.23;;;1.80;;
15889;SDS011;8043;49.388;12.128;2022-09-21T04:09:01;3.20;;;1.70;;
15889;SDS011;8043;49.388;12.128;2022-09-21T04:14:03;0.97;;;0.93;;
15889;SDS011;8043;49.388;12.128;2022-09-21T04:19:05;2.50;;;1.60;;
15889;SDS011;8043;49.388;12.128;2022-09-21T04:24:07;4.23;;;1.57;;
15889;SDS011;8043;49.388;12.128;2022-09-21T04:29:10;2.93;;;1.43;;
15889;SDS011;8043;49.388;12.128;2022-09-21T04:34:13;2.07;;;1.67;;
15889;SDS011;8043;49.388;12.128;2022-09-21T04:39:15;1.47;;;1.37;;
15889;SDS011;8043;49.388;12.128;2022-09-21T04:44:17;1.40;;;1.00;;
15889;SDS011;8043;49.388;12.128;2022-09-21T04:49:19;2.07;;;1.00;;
15889;SDS011;8043;49.388;12.128;2022-09-21T04:54:22;1.67;;;1.40;;
15889;SDS011;8043;49.388;12.128;2022-09-21T04:59:24;2.83;;;1.93;;
15889;SDS011;8043;49.388;12.128;2022-09-21T05:04:26;3.23;;;2.00;;
15889;SDS011;8043;49.388;12.128;2022-09-21T05:09:29;1.77;;;1.40;;
15889;SDS011;8043;49.388;12.128;2022-09-21T05:14:49;2.20;;;2.00;;
15889;SDS011;8043;49.388;12.128;2022-09-21T05:19:51;3.40;;;1.80;;
15889;SDS011;8043;49.388;12.128;2022-09-21T05:24:54;2.10;;;1.53;;
15889;SDS011;8043;49.388;12.128;2022-09-21T05:29:56;2.97;;;1.80;;
15889;SDS011;8043;49.388;12.128;2022-09-21T05:40:32;4.87;;;2.00;;
15889;SDS011;8043;49.388;12.128;2022-09-21T05:45:34;5.00;;;2.57;;
15889;SDS011;8043;49.388;12.128;2022-09-21T05:55:54;5.87;;;3.43;;
15889;SDS011;8043;49.388;12.128;2022-09-21T06:01:10;6.77;;;2.67;;
15889;SDS011;8043;49.388;12.128;2022-09-21T06:06:08;3.63;;;2.07;;
15889;SDS011;8043;49.388;12.128;2022-09-21T06:11:11;4.40;;;1.93;;
15889;SDS011;8043;49.388;12.128;2022-09-21T06:16:13;3.80;;;2.43;;
15889;SDS011;8043;49.388;12.128;2022-09-21T06:21:16;5.70;;;2.57;;
15889;SDS011;8043;49.388;12.128;2022-09-21T06:26:18;5.87;;;2.57;;
15889;SDS011;8043;49.388;12.128;2022-09-21T06:31:20;5.57;;;2.63;;
15889;SDS011;8043;49.388;12.128;2022-09-21T06:36:23;4.77;;;2.30;;
15889;SDS011;8043;49.388;12.128;2022-09-21T06:41:25;3.87;;;1.80;;
15889;SDS011;8043;49.388;12.128;2022-09-21T06:46:27;1.87;;;1.40;;
15889;SDS011;8043;49.388;12.128;2022-09-21T06:51:29;3.73;;;1.80;;
15889;SDS011;8043;49.388;12.128;2022-09-21T06:56:32;4.50;;;1.93;;
15889;SDS011;8043;49.388;12.128;2022-09-21T07:01:35;4.80;;;2.23;;
15889;SDS011;8043;49.388;12.128;2022-09-21T07:06:37;1.77;;;1.40;;
15889;SDS011;8043;49.388;12.128;2022-09-21T07:11:39;3.70;;;2.17;;
15889;SDS011;8043;49.388;12.128;2022-09-21T07:16:42;4.33;;;2.10;;
15889;SDS011;8043;49.388;12.128;2022-09-21T07:21:44;4.13;;;2.37;;
15889;SDS011;8043;49.388;12.128;2022-09-21T07:26:46;6.13;;;2.70;;
15889;SDS011;8043;49.388;12.128;2022-09-21T07:31:49;4.27;;;2.03;;
15889;SDS011;8043;49.388;12.128;2022-09-21T07:36:51;5.95;;;2.77;;
15889;SDS011;8043;49.388;12.128;2022-09-21T07:41:53;4.23;;;2.20;;
15889;SDS011;8043;49.388;12.128;2022-09-21T07:46:57;3.80;;;2.00;;
15889;SDS011;8043;49.388;12.128;2022-09-21T07:52:00;7.27;;;3.00;;
15889;SDS011;8043;49.388;12.128;2022-09-21T07:57:03;5.77;;;2.70;;
15889;SDS011;8043;49.388;12.128;2022-09-21T08:02:24;7.47;;;3.33;;
15889;SDS011;8043;49.388;12.128;2022-09-21T08:07:26;5.10;;;2.60;;
15889;SDS011;8043;49.388;12.128;2022-09-21T08:12:28;6.20;;;3.20;;
15889;SDS011;8043;49.388;12.128;2022-09-21T08:17:31;7.70;;;3.70;;
15889;SDS011;8043;49.388;12.128;2022-09-21T08:22:33;6.70;;;3.80;;
15889;SDS011;8043;49.388;12.128;2022-09-21T08:27:36;7.10;;;3.33;;
15889;SDS011;8043;49.388;12.128;2022-09-21T08:32:39;9.63;;;3.77;;
15889;SDS011;8043;49.388;12.128;2022-09-21T08:37:41;6.17;;;3.40;;
15889;SDS011;8043;49.388;12.128;2022-09-21T08:42:46;7.60;;;3.33;;
15889;SDS011;8043;49.388;12.128;2022-09-21T08:48:01;11.47;;;4.83;;
15889;SDS011;8043;49.388;12.128;2022-09-21T08:53:15;11.87;;;5.13;;
15889;SDS011;8043;49.388;12.128;2022-09-21T08:58:20;8.43;;;4.17;;
15889;SDS011;8043;49.388;12.128;2022-09-21T09:13:57;11.43;;;4.60;;
15889;SDS011;8043;49.388;12.128;2022-09-21T09:24:30;10.47;;;5.17;;
15889;SDS011;8043;49.388;12.128;2022-09-21T09:29:59;10.37;;;4.63;;
15889;SDS011;8043;49.388;12.128;2022-09-21T09:35:21;8.10;;;4.77;;
15889;SDS011;8043;49.388;12.128;2022-09-21T09:40:29;9.50;;;5.50;;
15889;SDS011;8043;49.388;12.128;2022-09-21T09:45:49;10.93;;;5.93;;
15889;SDS011;8043;49.388;12.128;2022-09-21T09:50:52;8.50;;;4.60;;
15889;SDS011;8043;49.388;12.128;2022-09-21T09:55:55;8.43;;;4.53;;
15889;SDS011;8043;49.388;12.128;2022-09-21T10:00:58;9.87;;;5.03;;
15889;SDS011;8043;49.388;12.128;2022-09-21T10:06:00;8.23;;;4.97;;
15889;SDS011;8043;49.388;12.128;2022-09-21T10:11:02;7.73;;;4.40;;
15889;SDS011;8043;49.388;12.128;2022-09-21T10:16:17;9.20;;;4.53;;
15889;SDS011;8043;49.388;12.128;2022-09-21T10:21:31;9.80;;;5.03;;
15889;SDS011;8043;49.388;12.128;2022-09-21T10:26:35;10.90;;;4.83;;
15889;SDS011;8043;49.388;12.128;2022-09-21T10:32:01;10.00;;;4.67;;
15889;SDS011;8043;49.388;12.128;2022-09-21T10:37:41;9.57;;;4.37;;
15889;SDS011;8043;49.388;12.128;2022-09-21T10:42:30;9.63;;;4.70;;
15889;SDS011;8043;49.388;12.128;2022-09-21T10:47:38;8.37;;;4.10;;
15889;SDS011;8043;49.388;12.128;2022-09-21T10:52:42;5.70;;;3.70;;
15889;SDS011;8043;49.388;12.128;2022-09-21T10:57:45;6.00;;;3.47;;
15889;SDS011;8043;49.388;12.128;2022-09-21T11:02:48;7.87;;;3.40;;
15889;SDS011;8043;49.388;12.128;2022-09-21T11:29:27;5.62;;;2.98;;
15889;SDS011;8043;49.388;12.128;2022-09-21T11:40:58;3.90;;;1.30;;
15889;SDS011;8043;49.388;12.128;2022-09-21T11:50:45;2.33;;;1.20;;
15889;SDS011;8043;49.388;12.128;2022-09-21T11:56:15;2.07;;;1.07;;
15889;SDS011;8043;49.388;12.128;2022-09-21T12:12:18;2.53;;;0.83;;
15889;SDS011;8043;49.388;12.128;2022-09-21T12:23:01;2.67;;;1.63;;
15889;SDS011;8043;49.388;12.128;2022-09-21T12:38:29;1.10;;;1.00;;
15889;SDS011;8043;49.388;12.128;2022-09-21T12:43:54;1.00;;;0.93;;
15889;SDS011;8043;49.388;12.128;2022-09-21T12:49:09;1.23;;;0.80;;
15889;SDS011;8043;49.388;12.128;2022-09-21T12:54:16;0.77;;;0.70;;
15889;SDS011;8043;49.388;12.128;2022-09-21T12:59:42;1.97;;;1.10;;
15889;SDS011;8043;49.388;12.128;2022-09-21T13:09:58;2.33;;;1.30;;
15889;SDS011;8043;49.388;12.128;2022-09-21T13:15:03;1.50;;;1.40;;
15889;SDS011;8043;49.388;12.128;2022-09-21T13:25:18;5.60;;;3.53;;
15889;SDS011;8043;49.388;12.128;2022-09-21T13:30:46;3.10;;;0.87;;
15889;SDS011;8043;49.388;12.128;2022-09-21T13:41:03;1.73;;;1.10;;
15889;SDS011;8043;49.388;12.128;2022-09-21T13:57:04;2.57;;;1.17;;
15889;SDS011;8043;49.388;12.128;2022-09-21T14:02:20;1.57;;;0.80;;
15889;SDS011;8043;49.388;12.128;2022-09-21T14:07:31;3.20;;;2.00;;
15889;SDS011;8043;49.388;12.128;2022-09-21T14:12:37;4.00;;;1.30;;
15889;SDS011;8043;49.388;12.128;2022-09-21T14:17:39;2.27;;;1.37;;
15889;SDS011;8043;49.388;12.128;2022-09-21T14:22:41;0.73;;;0.60;;
15889;SDS011;8043;49.388;12.128;2022-09-21T14:27:45;1.40;;;0.70;;
15889;SDS011;8043;49.388;12.128;2022-09-21T14:38:21;3.10;;;0.87;;
15889;SDS011;8043;49.388;12.128;2022-09-21T14:43:28;1.00;;;0.70;;
15889;SDS011;8043;49.388;12.128;2022-09-21T14:48:36;0.40;;;0.40;;
15889;SDS011;8043;49.388;12.128;2022-09-21T14:54:02;1.10;;;0.60;;
15889;SDS011;8043;49.388;12.128;2022-09-21T14:59:23;0.23;;;0.23;;
15889;SDS011;8043;49.388;12.128;2022-09-21T15:09:37;0.90;;;0.70;;
15889;SDS011;8043;49.388;12.128;2022-09-21T15:20:24;1.17;;;0.83;;
15889;SDS011;8043;49.388;12.128;2022-09-21T15:25:29;1.50;;;1.30;;
15889;SDS011;8043;49.388;12.128;2022-09-21T15:30:32;2.07;;;1.40;;
15889;SDS011;8043;49.388;12.128;2022-09-21T15:35:38;4.70;;;2.57;;
15889;SDS011;8043;49.388;12.128;2022-09-21T15:40:45;3.03;;;1.47;;
15889;SDS011;8043;49.388;12.128;2022-09-21T15:46:08;1.57;;;0.87;;
15889;SDS011;8043;49.388;12.128;2022-09-21T15:51:15;2.50;;;1.00;;
15889;SDS011;8043;49.388;12.128;2022-09-21T15:56:22;2.03;;;1.40;;
15889;SDS011;8043;49.388;12.128;2022-09-21T16:01:25;2.03;;;1.43;;
15889;SDS011;8043;49.388;12.128;2022-09-21T16:06:35;2.30;;;2.10;;
15889;SDS011;8043;49.388;12.128;2022-09-21T16:11:42;2.97;;;1.77;;
15889;SDS011;8043;49.388;12.128;2022-09-21T16:17:03;2.10;;;1.00;;
15889;SDS011;8043;49.388;12.128;2022-09-21T16:22:11;1.17;;;1.00;;
15889;SDS011;8043;49.388;12.128;2022-09-21T16:27:17;2.10;;;1.20;;
15889;SDS011;8043;49.388;12.128;2022-09-21T16:32:27;4.13;;;1.97;;
15889;SDS011;8043;49.388;12.128;2022-09-21T16:37:31;5.83;;;2.40;;
15889;SDS011;8043;49.388;12.128;2022-09-21T16:42:35;4.73;;;2.40;;
15889;SDS011;8043;49.388;12.128;2022-09-21T16:47:38;2.23;;;1.50;;
15889;SDS011;8043;49.388;12.128;2022-09-21T16:52:40;2.67;;;1.60;;
15889;SDS011;8043;49.388;12.128;2022-09-21T16:57:44;2.87;;;1.50;;
15889;SDS011;8043;49.388;12.128;2022-09-21T17:02:48;4.47;;;1.97;;
15889;SDS011;8043;49.388;12.128;2022-09-21T17:07:53;2.80;;;1.70;;
15889;SDS011;8043;49.388;12.128;2022-09-21T17:12:57;4.20;;;1.73;;
15889;SDS011;8043;49.388;12.128;2022-09-21T17:17:59;2.43;;;1.60;;
15889;SDS011;8043;49.388;12.128;2022-09-21T17:23:02;2.73;;;1.57;;
15889;SDS011;8043;49.388;12.128;2022-09-21T17:28:15;5.67;;;1.43;;
15889;SDS011;8043;49.388;12.128;2022-09-21T17:33:23;4.90;;;2.33;;
15889;SDS011;8043;49.388;12.128;2022-09-21T17:38:25;6.43;;;2.80;;
15889;SDS011;8043;49.388;12.128;2022-09-21T17:43:36;4.45;;;1.90;;
15889;SDS011;8043;49.388;12.128;2022-09-21T17:48:43;2.33;;;1.60;;
15889;SDS011;8043;49.388;12.128;2022-09-21T17:53:46;5.77;;;2.27;;
15889;SDS011;8043;49.388;12.128;2022-09-21T17:59:03;5.00;;;1.77;;
15889;SDS011;8043;49.388;12.128;2022-09-21T18:04:02;2.60;;;1.57;;
15889;SDS011;8043;49.388;12.128;2022-09-21T18:09:05;4.30;;;1.50;;
15889;SDS011;8043;49.388;12.128;2022-09-21T18:14:11;5.33;;;2.10;;
15889;SDS011;8043;49.388;12.128;2022-09-21T18:19:34;4.77;;;2.30;;
15889;SDS011;8043;49.388;12.128;2022-09-21T18:24:49;4.70;;;2.47;;
15889;SDS011;8043;49.388;12.128;2022-09-21T18:29:52;7.50;;;3.73;;
15889;SDS011;8043;49.388;12.128;2022-09-21T18:40:30;6.80;;;3.63;;
15889;SDS011;8043;49.388;12.128;2022-09-21T18:45:36;9.10;;;4.47;;
15889;SDS011;8043;49.388;12.128;2022-09-21T18:56:08;9.23;;;4.97;;
15889;SDS011;8043;49.388;12.128;2022-09-21T19:01:12;5.37;;;2.87;;
15889;SDS011;8043;49.388;12.128;2022-09-21T19:06:19;6.47;;;2.93;;
15889;SDS011;8043;49.388;12.128;2022-09-21T19:16:43;4.80;;;2.90;;
15889;SDS011;8043;49.388;12.128;2022-09-21T19:22:02;3.80;;;1.97;;
15889;SDS011;8043;49.388;12.128;2022-09-21T19:27:21;3.23;;;2.20;;
15889;SDS011;8043;49.388;12.128;2022-09-21T19:32:45;4.57;;;2.20;;
15889;SDS011;8043;49.388;12.128;2022-09-21T19:37:50;4.23;;;2.40;;
15889;SDS011;8043;49.388;12.128;2022-09-21T19:48:17;3.27;;;2.07;;
15889;SDS011;8043;49.388;12.128;2022-09-21T19:53:22;4.17;;;2.33;;
15889;SDS011;8043;49.388;12.128;2022-09-21T19:58:43;2.63;;;1.73;;
15889;SDS011;8043;49.388;12.128;2022-09-21T20:04:03;3.80;;;1.87;;
15889;SDS011;8043;49.388;12.128;2022-09-21T20:14:46;3.73;;;2.00;;
15889;SDS011;8043;49.388;12.128;2022-09-21T20:19:50;8.17;;;3.90;;
15889;SDS011;8043;49.388;12.128;2022-09-21T20:30:30;4.40;;;2.67;;
15889;SDS011;8043;49.388;12.128;2022-09-21T20:35:34;3.23;;;1.67;;
15889;SDS011;8043;49.388;12.128;2022-09-21T20:40:37;3.60;;;2.00;;
15889;SDS011;8043;49.388;12.128;2022-09-21T20:45:40;2.77;;;2.00;;
15889;SDS011;8043;49.388;12.128;2022-09-21T20:50:47;3.97;;;1.63;;
15889;SDS011;8043;49.388;12.128;2022-09-21T20:55:54;3.70;;;2.10;;
15889;SDS011;8043;49.388;12.128;2022-09-21T21:01:04;4.23;;;2.37;;
15889;SDS011;8043;49.388;12.128;2022-09-21T21:06:12;3.53;;;1.90;;
15889;SDS011;8043;49.388;12.128;2022-09-21T21:11:16;1.60;;;1.40;;
15889;SDS011;8043;49.388;12.128;2022-09-21T21:16:19;5.17;;;2.57;;
15889;SDS011;8043;49.388;12.128;2022-09-21T21:21:21;2.90;;;1.90;;
15889;SDS011;8043;49.388;12.128;2022-09-21T21:26:24;2.87;;;1.80;;
15889;SDS011;8043;49.388;12.128;2022-09-21T21:31:26;5.67;;;2.07;;
15889;SDS011;8043;49.388;12.128;2022-09-21T21:36:28;3.57;;;2.17;;
15889;SDS011;8043;49.388;12.128;2022-09-21T21:41:31;3.20;;;2.17;;
15889;SDS011;8043;49.388;12.128;2022-09-21T21:46:33;5.97;;;1.93;;
15889;SDS011;8043;49.388;12.128;2022-09-21T21:51:35;4.53;;;2.40;;
15889;SDS011;8043;49.388;12.128;2022-09-21T21:56:37;8.90;;;3.60;;
15889;SDS011;8043;49.388;12.128;2022-09-21T22:01:39;4.60;;;2.80;;
15889;SDS011;8043;49.388;12.128;2022-09-21T22:06:42;5.73;;;2.77;;
15889;SDS011;8043;49.388;12.128;2022-09-21T22:11:44;7.93;;;3.47;;
15889;SDS011;8043;49.388;12.128;2022-09-21T22:16:47;4.70;;;2.90;;
15889;SDS011;8043;49.388;12.128;2022-09-21T22:21:50;5.37;;;2.30;;
15889;SDS011;8043;49.388;12.128;2022-09-21T22:26:52;2.03;;;1.67;;
15889;SDS011;8043;49.388;12.128;2022-09-21T22:31:55;4.83;;;1.90;;
15889;SDS011;8043;49.388;12.128;2022-09-21T22:36:57;2.23;;;1.47;;
15889;SDS011;8043;49.388;12.128;2022-09-21T22:42:00;3.47;;;1.60;;
15889;SDS011;8043;49.388;12.128;2022-09-21T22:47:02;2.97;;;1.63;;
15889;SDS011;8043;49.388;12.128;2022-09-21T22:52:05;3.77;;;1.77;;
15889;SDS011;8043;49.388;12.128;2022-09-21T22:57:08;4.67;;;1.65;;
15889;SDS011;8043;49.388;12.128;2022-09-21T23:02:10;3.77;;;1.70;;
15889;SDS011;8043;49.388;12.128;2022-09-21T23:07:12;3.00;;;2.23;;
15889;SDS011;8043;49.388;12.128;2022-09-21T23:12:15;3.67;;;1.73;;
15889;SDS011;8043;49.388;12.128;2022-09-21T23:17:17;2.97;;;1.80;;
15889;SDS011;8043;49.388;12.128;2022-09-21T23:22:19;2.50;;;1.70;;
15889;SDS011;8043;49.388;12.128;2022-09-21T23:27:21;1.80;;;1.50;;
15889;SDS011;8043;49.388;12.128;2022-09-21T23:32:24;3.13;;;2.00;;
15889;SDS011;8043;49.388;12.128;2022-09-21T23:37:27;5.03;;;2.23;;
15889;SDS011;8043;49.388;12.128;2022-09-21T23:42:29;2.00;;;1.43;;
15889;SDS011;8043;49.388;12.128;2022-09-21T23:47:31;2.50;;;1.60;;
15889;SDS011;8043;49.388;12.128;2022-09-21T23:52:33;4.17;;;1.73;;
15889;SDS011;8043;49.388;12.128;2022-09-21T23:57:36;1.80;;;1.53;;
